sensor_id;sensor_type;location;lat;lon;timestamp;P1;durP1;ratioP1;P2;durP2;ratioP2
68633;SDS011;55625;47.072;22.192;2023-07-20T00:02:00;7.57;;;3.00;;
68633;SDS011;55625;47.072;22.192;2023-07-20T00:04:27;4.40;;;2.55;;
68633;SDS011;55625;47.072;22.192;2023-07-20T00:06:53;6.57;;;2.97;;
68633;SDS011;55625;47.072;22.192;2023-07-20T00:09:19;4.50;;;2.20;;
68633;SDS011;55625;47.072;22.192;2023-07-20T00:11:50;5.17;;;2.07;;
68633;SDS011;55625;47.072;22.192;2023-07-20T00:14:16;4.75;;;1.90;;
68633;SDS011;55625;47.072;22.192;2023-07-20T00:16:44;6.45;;;2.60;;
68633;SDS011;55625;47.072;22.192;2023-07-20T00:19:11;5.68;;;3.03;;
68633;SDS011;55625;47.072;22.192;2023-07-20T00:21:38;4.80;;;2.28;;
68633;SDS011;55625;47.072;22.192;2023-07-20T00:24:05;5.27;;;2.47;;
68633;SDS011;55625;47.072;22.192;2023-07-20T00:26:31;6.20;;;2.88;;
68633;SDS011;55625;47.072;22.192;2023-07-20T00:28:57;5.60;;;2.78;;
68633;SDS011;55625;47.072;22.192;2023-07-20T00:31:23;6.00;;;2.50;;
68633;SDS011;55625;47.072;22.192;2023-07-20T00:33:48;4.40;;;2.50;;
68633;SDS011;55625;47.072;22.192;2023-07-20T00:36:14;8.68;;;3.10;;
68633;SDS011;55625;47.072;22.192;2023-07-20T00:38:40;10.23;;;2.28;;
68633;SDS011;55625;47.072;22.192;2023-07-20T00:41:07;7.63;;;3.53;;
68633;SDS011;55625;47.072;22.192;2023-07-20T00:43:33;4.30;;;2.25;;
68633;SDS011;55625;47.072;22.192;2023-07-20T00:45:59;6.28;;;3.13;;
68633;SDS011;55625;47.072;22.192;2023-07-20T00:48:25;5.93;;;2.27;;
68633;SDS011;55625;47.072;22.192;2023-07-20T00:50:51;5.70;;;2.95;;
68633;SDS011;55625;47.072;22.192;2023-07-20T00:53:17;6.53;;;3.40;;
68633;SDS011;55625;47.072;22.192;2023-07-20T00:55:43;5.55;;;2.65;;
68633;SDS011;55625;47.072;22.192;2023-07-20T00:58:09;5.32;;;2.70;;
68633;SDS011;55625;47.072;22.192;2023-07-20T01:00:36;3.73;;;1.70;;
68633;SDS011;55625;47.072;22.192;2023-07-20T01:03:01;4.55;;;2.60;;
68633;SDS011;55625;47.072;22.192;2023-07-20T01:05:33;8.88;;;2.80;;
68633;SDS011;55625;47.072;22.192;2023-07-20T01:11:31;6.30;;;3.10;;
68633;SDS011;55625;47.072;22.192;2023-07-20T01:14:13;5.93;;;3.45;;
68633;SDS011;55625;47.072;22.192;2023-07-20T01:16:40;5.57;;;3.40;;
68633;SDS011;55625;47.072;22.192;2023-07-20T01:19:06;6.00;;;2.38;;
68633;SDS011;55625;47.072;22.192;2023-07-20T01:21:39;10.80;;;2.83;;
68633;SDS011;55625;47.072;22.192;2023-07-20T01:29:38;6.47;;;2.65;;
68633;SDS011;55625;47.072;22.192;2023-07-20T01:32:14;12.63;;;3.47;;
68633;SDS011;55625;47.072;22.192;2023-07-20T01:34:44;4.97;;;2.85;;
68633;SDS011;55625;47.072;22.192;2023-07-20T01:37:10;8.20;;;3.10;;
68633;SDS011;55625;47.072;22.192;2023-07-20T01:39:37;4.78;;;2.50;;
68633;SDS011;55625;47.072;22.192;2023-07-20T01:42:04;4.85;;;2.42;;
68633;SDS011;55625;47.072;22.192;2023-07-20T01:44:31;10.13;;;2.87;;
68633;SDS011;55625;47.072;22.192;2023-07-20T01:46:57;4.68;;;3.05;;
68633;SDS011;55625;47.072;22.192;2023-07-20T01:49:22;5.65;;;3.38;;
68633;SDS011;55625;47.072;22.192;2023-07-20T01:51:48;9.80;;;2.63;;
68633;SDS011;55625;47.072;22.192;2023-07-20T01:54:14;7.55;;;2.55;;
68633;SDS011;55625;47.072;22.192;2023-07-20T01:56:40;4.15;;;2.20;;
68633;SDS011;55625;47.072;22.192;2023-07-20T01:59:06;5.90;;;3.00;;
68633;SDS011;55625;47.072;22.192;2023-07-20T02:01:31;7.65;;;2.22;;
68633;SDS011;55625;47.072;22.192;2023-07-20T02:03:58;5.18;;;2.05;;
68633;SDS011;55625;47.072;22.192;2023-07-20T02:06:24;6.97;;;3.57;;
68633;SDS011;55625;47.072;22.192;2023-07-20T02:08:50;5.78;;;2.67;;
68633;SDS011;55625;47.072;22.192;2023-07-20T02:11:16;5.80;;;3.40;;
68633;SDS011;55625;47.072;22.192;2023-07-20T02:13:41;6.03;;;2.87;;
68633;SDS011;55625;47.072;22.192;2023-07-20T02:16:07;5.25;;;3.85;;
68633;SDS011;55625;47.072;22.192;2023-07-20T02:18:33;5.50;;;2.77;;
68633;SDS011;55625;47.072;22.192;2023-07-20T02:21:00;4.15;;;2.47;;
68633;SDS011;55625;47.072;22.192;2023-07-20T02:23:26;7.80;;;3.10;;
68633;SDS011;55625;47.072;22.192;2023-07-20T02:25:51;4.07;;;2.10;;
68633;SDS011;55625;47.072;22.192;2023-07-20T02:28:17;5.90;;;3.00;;
68633;SDS011;55625;47.072;22.192;2023-07-20T02:30:43;6.05;;;2.95;;
68633;SDS011;55625;47.072;22.192;2023-07-20T02:33:09;6.17;;;2.47;;
68633;SDS011;55625;47.072;22.192;2023-07-20T02:35:35;6.03;;;2.95;;
68633;SDS011;55625;47.072;22.192;2023-07-20T02:38:00;6.38;;;2.78;;
68633;SDS011;55625;47.072;22.192;2023-07-20T02:40:26;5.93;;;2.73;;
68633;SDS011;55625;47.072;22.192;2023-07-20T02:42:52;6.60;;;3.50;;
68633;SDS011;55625;47.072;22.192;2023-07-20T02:45:18;6.68;;;2.30;;
68633;SDS011;55625;47.072;22.192;2023-07-20T02:47:44;20.67;;;2.80;;
68633;SDS011;55625;47.072;22.192;2023-07-20T02:50:10;9.98;;;3.10;;
68633;SDS011;55625;47.072;22.192;2023-07-20T02:52:38;8.90;;;2.85;;
68633;SDS011;55625;47.072;22.192;2023-07-20T02:55:04;7.23;;;3.73;;
68633;SDS011;55625;47.072;22.192;2023-07-20T02:57:30;6.68;;;2.65;;
68633;SDS011;55625;47.072;22.192;2023-07-20T02:59:56;6.68;;;2.95;;
68633;SDS011;55625;47.072;22.192;2023-07-20T03:02:22;9.33;;;2.93;;
68633;SDS011;55625;47.072;22.192;2023-07-20T03:04:47;5.90;;;3.20;;
68633;SDS011;55625;47.072;22.192;2023-07-20T03:07:14;4.93;;;2.58;;
68633;SDS011;55625;47.072;22.192;2023-07-20T03:09:39;7.07;;;2.10;;
68633;SDS011;55625;47.072;22.192;2023-07-20T03:12:06;5.67;;;2.63;;
68633;SDS011;55625;47.072;22.192;2023-07-20T03:14:32;6.45;;;2.90;;
68633;SDS011;55625;47.072;22.192;2023-07-20T03:16:58;6.45;;;2.55;;
68633;SDS011;55625;47.072;22.192;2023-07-20T03:19:24;5.43;;;2.87;;
68633;SDS011;55625;47.072;22.192;2023-07-20T03:21:50;4.28;;;2.60;;
68633;SDS011;55625;47.072;22.192;2023-07-20T03:24:16;11.98;;;1.95;;
68633;SDS011;55625;47.072;22.192;2023-07-20T03:26:41;7.43;;;2.87;;
68633;SDS011;55625;47.072;22.192;2023-07-20T03:29:07;3.97;;;2.17;;
68633;SDS011;55625;47.072;22.192;2023-07-20T03:31:33;5.88;;;2.92;;
68633;SDS011;55625;47.072;22.192;2023-07-20T03:34:02;5.85;;;2.67;;
68633;SDS011;55625;47.072;22.192;2023-07-20T03:36:28;7.87;;;2.97;;
68633;SDS011;55625;47.072;22.192;2023-07-20T03:38:53;11.05;;;3.65;;
68633;SDS011;55625;47.072;22.192;2023-07-20T03:41:19;7.53;;;3.53;;
68633;SDS011;55625;47.072;22.192;2023-07-20T03:43:46;4.57;;;2.33;;
68633;SDS011;55625;47.072;22.192;2023-07-20T03:46:12;6.40;;;2.80;;
68633;SDS011;55625;47.072;22.192;2023-07-20T03:48:38;9.90;;;3.42;;
68633;SDS011;55625;47.072;22.192;2023-07-20T03:51:04;7.00;;;3.60;;
68633;SDS011;55625;47.072;22.192;2023-07-20T03:53:30;6.68;;;2.53;;
68633;SDS011;55625;47.072;22.192;2023-07-20T03:55:55;8.85;;;3.13;;
68633;SDS011;55625;47.072;22.192;2023-07-20T03:58:21;9.10;;;3.03;;
68633;SDS011;55625;47.072;22.192;2023-07-20T04:00:48;10.90;;;3.10;;
68633;SDS011;55625;47.072;22.192;2023-07-20T04:03:15;6.32;;;3.17;;
68633;SDS011;55625;47.072;22.192;2023-07-20T04:05:42;6.95;;;2.88;;
68633;SDS011;55625;47.072;22.192;2023-07-20T04:08:09;12.07;;;2.95;;
68633;SDS011;55625;47.072;22.192;2023-07-20T04:10:36;10.20;;;3.17;;
68633;SDS011;55625;47.072;22.192;2023-07-20T04:13:03;4.82;;;2.13;;
68633;SDS011;55625;47.072;22.192;2023-07-20T04:15:29;10.93;;;2.80;;
68633;SDS011;55625;47.072;22.192;2023-07-20T04:17:56;6.78;;;2.80;;
68633;SDS011;55625;47.072;22.192;2023-07-20T04:20:22;5.83;;;2.80;;
68633;SDS011;55625;47.072;22.192;2023-07-20T04:22:49;10.07;;;2.58;;
68633;SDS011;55625;47.072;22.192;2023-07-20T04:25:15;6.55;;;3.25;;
68633;SDS011;55625;47.072;22.192;2023-07-20T04:27:42;13.98;;;2.65;;
68633;SDS011;55625;47.072;22.192;2023-07-20T04:30:08;14.13;;;2.38;;
68633;SDS011;55625;47.072;22.192;2023-07-20T04:32:36;7.63;;;3.27;;
68633;SDS011;55625;47.072;22.192;2023-07-20T04:35:06;4.55;;;2.72;;
68633;SDS011;55625;47.072;22.192;2023-07-20T04:37:35;4.45;;;1.77;;
68633;SDS011;55625;47.072;22.192;2023-07-20T04:40:01;7.60;;;2.47;;
68633;SDS011;55625;47.072;22.192;2023-07-20T04:42:28;10.37;;;2.23;;
68633;SDS011;55625;47.072;22.192;2023-07-20T04:44:54;5.70;;;1.23;;
68633;SDS011;55625;47.072;22.192;2023-07-20T04:47:19;11.43;;;2.05;;
68633;SDS011;55625;47.072;22.192;2023-07-20T04:49:45;5.17;;;2.03;;
68633;SDS011;55625;47.072;22.192;2023-07-20T04:52:11;5.03;;;1.80;;
68633;SDS011;55625;47.072;22.192;2023-07-20T04:54:37;5.67;;;1.20;;
68633;SDS011;55625;47.072;22.192;2023-07-20T04:57:02;6.57;;;1.63;;
68633;SDS011;55625;47.072;22.192;2023-07-20T04:59:35;6.50;;;2.25;;
68633;SDS011;55625;47.072;22.192;2023-07-20T05:02:01;6.93;;;2.43;;
68633;SDS011;55625;47.072;22.192;2023-07-20T05:04:27;6.50;;;2.13;;
68633;SDS011;55625;47.072;22.192;2023-07-20T05:06:53;4.55;;;1.85;;
68633;SDS011;55625;47.072;22.192;2023-07-20T05:09:18;8.07;;;2.40;;
68633;SDS011;55625;47.072;22.192;2023-07-20T10:16:02;4.75;;;2.38;;
68633;SDS011;55625;47.072;22.192;2023-07-20T10:21:23;4.80;;;2.33;;
68633;SDS011;55625;47.072;22.192;2023-07-20T10:23:49;5.15;;;1.70;;
68633;SDS011;55625;47.072;22.192;2023-07-20T10:26:15;4.55;;;1.58;;
68633;SDS011;55625;47.072;22.192;2023-07-20T10:28:41;4.10;;;1.90;;
68633;SDS011;55625;47.072;22.192;2023-07-20T10:31:10;6.63;;;2.85;;
68633;SDS011;55625;47.072;22.192;2023-07-20T10:33:38;4.75;;;2.30;;
68633;SDS011;55625;47.072;22.192;2023-07-20T10:36:05;7.47;;;1.85;;
68633;SDS011;55625;47.072;22.192;2023-07-20T10:44:01;4.40;;;1.67;;
68633;SDS011;55625;47.072;22.192;2023-07-20T10:46:41;5.60;;;2.28;;
68633;SDS011;55625;47.072;22.192;2023-07-20T10:49:12;3.33;;;1.70;;
68633;SDS011;55625;47.072;22.192;2023-07-20T10:56:42;7.75;;;1.92;;
68633;SDS011;55625;47.072;22.192;2023-07-20T11:01:59;6.80;;;2.35;;
68633;SDS011;55625;47.072;22.192;2023-07-20T11:04:45;4.70;;;2.00;;
68633;SDS011;55625;47.072;22.192;2023-07-20T11:07:16;9.90;;;1.73;;
68633;SDS011;55625;47.072;22.192;2023-07-20T11:10:23;5.45;;;2.30;;
68633;SDS011;55625;47.072;22.192;2023-07-20T11:13:33;6.35;;;2.55;;
68633;SDS011;55625;47.072;22.192;2023-07-20T11:15:48;6.25;;;2.17;;
68633;SDS011;55625;47.072;22.192;2023-07-20T11:18:32;4.72;;;2.28;;
68633;SDS011;55625;47.072;22.192;2023-07-20T11:21:06;7.20;;;3.27;;
68633;SDS011;55625;47.072;22.192;2023-07-20T11:23:34;7.97;;;2.78;;
68633;SDS011;55625;47.072;22.192;2023-07-20T11:26:04;6.65;;;2.22;;
68633;SDS011;55625;47.072;22.192;2023-07-20T11:28:30;4.15;;;2.35;;
68633;SDS011;55625;47.072;22.192;2023-07-20T11:30:56;4.20;;;1.70;;
68633;SDS011;55625;47.072;22.192;2023-07-20T11:33:22;9.10;;;2.28;;
68633;SDS011;55625;47.072;22.192;2023-07-20T11:35:48;4.90;;;2.88;;
68633;SDS011;55625;47.072;22.192;2023-07-20T11:38:18;3.60;;;1.87;;
68633;SDS011;55625;47.072;22.192;2023-07-20T11:40:44;6.32;;;2.13;;
68633;SDS011;55625;47.072;22.192;2023-07-20T11:43:14;3.10;;;1.23;;
68633;SDS011;55625;47.072;22.192;2023-07-20T11:45:40;5.85;;;1.73;;
68633;SDS011;55625;47.072;22.192;2023-07-20T11:48:06;13.82;;;2.50;;
68633;SDS011;55625;47.072;22.192;2023-07-20T11:50:32;7.03;;;2.87;;
68633;SDS011;55625;47.072;22.192;2023-07-20T11:53:05;6.97;;;2.92;;
68633;SDS011;55625;47.072;22.192;2023-07-20T11:55:31;5.63;;;2.40;;
68633;SDS011;55625;47.072;22.192;2023-07-20T11:58:07;3.80;;;2.15;;
68633;SDS011;55625;47.072;22.192;2023-07-20T12:00:34;7.73;;;2.17;;
68633;SDS011;55625;47.072;22.192;2023-07-20T12:03:04;7.25;;;2.38;;
68633;SDS011;55625;47.072;22.192;2023-07-20T12:05:37;4.55;;;2.75;;
68633;SDS011;55625;47.072;22.192;2023-07-20T12:08:04;7.85;;;1.83;;
68633;SDS011;55625;47.072;22.192;2023-07-20T12:10:30;4.90;;;2.20;;
68633;SDS011;55625;47.072;22.192;2023-07-20T12:13:02;3.80;;;1.57;;
68633;SDS011;55625;47.072;22.192;2023-07-20T12:15:29;4.30;;;2.08;;
68633;SDS011;55625;47.072;22.192;2023-07-20T12:17:59;5.20;;;2.22;;
68633;SDS011;55625;47.072;22.192;2023-07-20T12:23:00;6.13;;;2.00;;
68633;SDS011;55625;47.072;22.192;2023-07-20T12:25:46;2.93;;;1.43;;
68633;SDS011;55625;47.072;22.192;2023-07-20T12:28:16;7.65;;;1.88;;
68633;SDS011;55625;47.072;22.192;2023-07-20T12:30:44;6.60;;;2.25;;
68633;SDS011;55625;47.072;22.192;2023-07-20T12:33:12;3.05;;;1.35;;
68633;SDS011;55625;47.072;22.192;2023-07-20T12:35:42;6.43;;;1.92;;
68633;SDS011;55625;47.072;22.192;2023-07-20T12:38:08;3.80;;;2.07;;
68633;SDS011;55625;47.072;22.192;2023-07-20T12:40:34;4.95;;;2.42;;
68633;SDS011;55625;47.072;22.192;2023-07-20T12:43:01;4.03;;;2.25;;
68633;SDS011;55625;47.072;22.192;2023-07-20T12:45:27;2.65;;;1.30;;
68633;SDS011;55625;47.072;22.192;2023-07-20T12:47:52;3.43;;;0.97;;
68633;SDS011;55625;47.072;22.192;2023-07-20T12:50:18;3.13;;;1.23;;
68633;SDS011;55625;47.072;22.192;2023-07-20T12:52:44;9.95;;;1.40;;
68633;SDS011;55625;47.072;22.192;2023-07-20T12:55:10;7.33;;;2.23;;
68633;SDS011;55625;47.072;22.192;2023-07-20T12:57:36;5.50;;;2.38;;
68633;SDS011;55625;47.072;22.192;2023-07-20T13:00:03;2.80;;;0.88;;
68633;SDS011;55625;47.072;22.192;2023-07-20T13:02:33;3.25;;;1.75;;
68633;SDS011;55625;47.072;22.192;2023-07-20T13:04:59;3.03;;;1.53;;
68633;SDS011;55625;47.072;22.192;2023-07-20T13:07:34;2.95;;;1.42;;
68633;SDS011;55625;47.072;22.192;2023-07-20T13:10:03;3.70;;;1.50;;
68633;SDS011;55625;47.072;22.192;2023-07-20T13:12:30;7.88;;;2.15;;
68633;SDS011;55625;47.072;22.192;2023-07-20T13:14:58;2.72;;;1.60;;
68633;SDS011;55625;47.072;22.192;2023-07-20T13:17:26;4.87;;;1.40;;
68633;SDS011;55625;47.072;22.192;2023-07-20T13:19:52;3.60;;;1.83;;
68633;SDS011;55625;47.072;22.192;2023-07-20T13:22:19;3.50;;;1.70;;
68633;SDS011;55625;47.072;22.192;2023-07-20T13:24:45;8.18;;;1.02;;
68633;SDS011;55625;47.072;22.192;2023-07-20T13:27:13;2.50;;;1.27;;
68633;SDS011;55625;47.072;22.192;2023-07-20T13:29:40;4.27;;;1.73;;
68633;SDS011;55625;47.072;22.192;2023-07-20T13:32:06;5.50;;;1.98;;
68633;SDS011;55625;47.072;22.192;2023-07-20T13:34:33;6.13;;;1.67;;
68633;SDS011;55625;47.072;22.192;2023-07-20T13:36:59;2.83;;;1.40;;
68633;SDS011;55625;47.072;22.192;2023-07-20T13:39:26;4.93;;;1.65;;
68633;SDS011;55625;47.072;22.192;2023-07-20T13:41:53;2.90;;;1.38;;
68633;SDS011;55625;47.072;22.192;2023-07-20T13:44:21;7.18;;;2.38;;
68633;SDS011;55625;47.072;22.192;2023-07-20T13:46:48;2.70;;;1.33;;
68633;SDS011;55625;47.072;22.192;2023-07-20T13:49:14;3.70;;;2.60;;
68633;SDS011;55625;47.072;22.192;2023-07-20T13:51:41;2.97;;;1.45;;
68633;SDS011;55625;47.072;22.192;2023-07-20T13:54:07;3.50;;;1.45;;
68633;SDS011;55625;47.072;22.192;2023-07-20T13:56:34;4.45;;;1.98;;
68633;SDS011;55625;47.072;22.192;2023-07-20T13:59:00;7.80;;;1.38;;
68633;SDS011;55625;47.072;22.192;2023-07-20T14:01:26;3.30;;;1.40;;
68633;SDS011;55625;47.072;22.192;2023-07-20T14:03:53;4.13;;;1.85;;
68633;SDS011;55625;47.072;22.192;2023-07-20T14:06:20;4.72;;;1.77;;
68633;SDS011;55625;47.072;22.192;2023-07-20T14:08:46;3.95;;;1.35;;
68633;SDS011;55625;47.072;22.192;2023-07-20T14:11:13;2.77;;;1.50;;
68633;SDS011;55625;47.072;22.192;2023-07-20T14:13:39;6.05;;;0.90;;
68633;SDS011;55625;47.072;22.192;2023-07-20T14:16:05;6.88;;;2.25;;
68633;SDS011;55625;47.072;22.192;2023-07-20T14:18:31;3.67;;;1.25;;
68633;SDS011;55625;47.072;22.192;2023-07-20T14:20:57;3.37;;;0.60;;
68633;SDS011;55625;47.072;22.192;2023-07-20T14:23:23;4.72;;;1.70;;
68633;SDS011;55625;47.072;22.192;2023-07-20T14:25:49;1.80;;;1.13;;
68633;SDS011;55625;47.072;22.192;2023-07-20T14:28:14;4.33;;;0.83;;
68633;SDS011;55625;47.072;22.192;2023-07-20T14:30:41;6.28;;;0.95;;
68633;SDS011;55625;47.072;22.192;2023-07-20T14:33:07;4.53;;;0.93;;
68633;SDS011;55625;47.072;22.192;2023-07-20T14:35:33;2.80;;;0.52;;
68633;SDS011;55625;47.072;22.192;2023-07-20T14:37:59;2.60;;;0.70;;
68633;SDS011;55625;47.072;22.192;2023-07-20T14:40:26;2.42;;;1.88;;
68633;SDS011;55625;47.072;22.192;2023-07-20T14:42:52;2.63;;;1.50;;
68633;SDS011;55625;47.072;22.192;2023-07-20T14:45:18;3.83;;;0.70;;
68633;SDS011;55625;47.072;22.192;2023-07-20T14:47:44;3.35;;;1.45;;
68633;SDS011;55625;47.072;22.192;2023-07-20T14:50:10;2.80;;;0.90;;
68633;SDS011;55625;47.072;22.192;2023-07-20T14:52:36;2.75;;;1.40;;
68633;SDS011;55625;47.072;22.192;2023-07-20T14:55:03;6.18;;;1.60;;
68633;SDS011;55625;47.072;22.192;2023-07-20T14:57:29;4.82;;;1.70;;
68633;SDS011;55625;47.072;22.192;2023-07-20T14:59:55;1.70;;;1.03;;
68633;SDS011;55625;47.072;22.192;2023-07-20T15:02:21;2.72;;;0.82;;
68633;SDS011;55625;47.072;22.192;2023-07-20T15:04:48;1.73;;;0.98;;
68633;SDS011;55625;47.072;22.192;2023-07-20T15:07:16;2.67;;;1.48;;
68633;SDS011;55625;47.072;22.192;2023-07-20T15:09:43;3.05;;;1.67;;
68633;SDS011;55625;47.072;22.192;2023-07-20T15:12:10;2.53;;;1.17;;
68633;SDS011;55625;47.072;22.192;2023-07-20T15:14:39;2.30;;;0.88;;
68633;SDS011;55625;47.072;22.192;2023-07-20T15:17:07;3.25;;;1.00;;
68633;SDS011;55625;47.072;22.192;2023-07-20T15:19:36;3.65;;;1.05;;
68633;SDS011;55625;47.072;22.192;2023-07-20T15:22:02;1.77;;;0.43;;
68633;SDS011;55625;47.072;22.192;2023-07-20T15:24:30;2.17;;;0.90;;
68633;SDS011;55625;47.072;22.192;2023-07-20T15:26:56;2.13;;;1.27;;
68633;SDS011;55625;47.072;22.192;2023-07-20T15:29:22;2.97;;;0.85;;
68633;SDS011;55625;47.072;22.192;2023-07-20T15:31:49;2.33;;;0.77;;
68633;SDS011;55625;47.072;22.192;2023-07-20T15:34:15;9.70;;;0.60;;
68633;SDS011;55625;47.072;22.192;2023-07-20T15:36:41;2.42;;;0.70;;
68633;SDS011;55625;47.072;22.192;2023-07-20T15:39:07;1.92;;;0.43;;
68633;SDS011;55625;47.072;22.192;2023-07-20T15:41:33;7.78;;;0.85;;
68633;SDS011;55625;47.072;22.192;2023-07-20T15:44:00;2.38;;;0.95;;
68633;SDS011;55625;47.072;22.192;2023-07-20T15:49:04;2.78;;;1.15;;
68633;SDS011;55625;47.072;22.192;2023-07-20T15:51:30;2.08;;;1.02;;
68633;SDS011;55625;47.072;22.192;2023-07-20T15:53:57;3.97;;;0.93;;
68633;SDS011;55625;47.072;22.192;2023-07-20T15:56:23;4.40;;;0.77;;
68633;SDS011;55625;47.072;22.192;2023-07-20T15:58:49;3.22;;;1.20;;
68633;SDS011;55625;47.072;22.192;2023-07-20T16:01:15;5.07;;;1.70;;
68633;SDS011;55625;47.072;22.192;2023-07-20T16:03:41;2.83;;;0.83;;
68633;SDS011;55625;47.072;22.192;2023-07-20T16:06:07;2.13;;;0.82;;
68633;SDS011;55625;47.072;22.192;2023-07-20T16:08:33;2.92;;;1.10;;
68633;SDS011;55625;47.072;22.192;2023-07-20T16:10:59;2.40;;;1.00;;
68633;SDS011;55625;47.072;22.192;2023-07-20T16:13:25;7.47;;;1.60;;
68633;SDS011;55625;47.072;22.192;2023-07-20T16:15:51;3.80;;;2.20;;
68633;SDS011;55625;47.072;22.192;2023-07-20T16:18:18;2.70;;;1.85;;
68633;SDS011;55625;47.072;22.192;2023-07-20T16:20:43;3.20;;;1.33;;
68633;SDS011;55625;47.072;22.192;2023-07-20T16:23:10;3.75;;;1.17;;
68633;SDS011;55625;47.072;22.192;2023-07-20T16:25:36;4.40;;;1.70;;
68633;SDS011;55625;47.072;22.192;2023-07-20T16:28:02;3.53;;;1.75;;
68633;SDS011;55625;47.072;22.192;2023-07-20T16:30:31;2.22;;;0.88;;
68633;SDS011;55625;47.072;22.192;2023-07-20T16:32:57;3.20;;;1.88;;
68633;SDS011;55625;47.072;22.192;2023-07-20T16:35:23;2.87;;;1.77;;
68633;SDS011;55625;47.072;22.192;2023-07-20T16:37:49;8.52;;;1.38;;
68633;SDS011;55625;47.072;22.192;2023-07-20T16:40:15;2.90;;;1.42;;
68633;SDS011;55625;47.072;22.192;2023-07-20T16:42:41;6.60;;;1.03;;
68633;SDS011;55625;47.072;22.192;2023-07-20T16:45:07;2.83;;;0.70;;
68633;SDS011;55625;47.072;22.192;2023-07-20T16:47:34;3.70;;;1.88;;
68633;SDS011;55625;47.072;22.192;2023-07-20T16:50:00;3.00;;;1.00;;
68633;SDS011;55625;47.072;22.192;2023-07-20T16:52:26;5.07;;;2.10;;
68633;SDS011;55625;47.072;22.192;2023-07-20T16:54:52;9.03;;;3.00;;
68633;SDS011;55625;47.072;22.192;2023-07-20T16:57:18;6.68;;;2.85;;
68633;SDS011;55625;47.072;22.192;2023-07-20T16:59:46;6.20;;;3.03;;
68633;SDS011;55625;47.072;22.192;2023-07-20T17:02:12;5.50;;;2.28;;
68633;SDS011;55625;47.072;22.192;2023-07-20T17:04:39;4.60;;;1.57;;
68633;SDS011;55625;47.072;22.192;2023-07-20T17:07:05;12.43;;;2.28;;
68633;SDS011;55625;47.072;22.192;2023-07-20T17:09:31;6.55;;;1.67;;
68633;SDS011;55625;47.072;22.192;2023-07-20T17:11:59;3.10;;;1.85;;
68633;SDS011;55625;47.072;22.192;2023-07-20T17:14:25;4.13;;;1.60;;
68633;SDS011;55625;47.072;22.192;2023-07-20T17:16:51;2.92;;;0.88;;
68633;SDS011;55625;47.072;22.192;2023-07-20T17:19:17;3.08;;;1.38;;
68633;SDS011;55625;47.072;22.192;2023-07-20T17:21:43;4.47;;;1.48;;
68633;SDS011;55625;47.072;22.192;2023-07-20T17:24:10;4.83;;;1.50;;
68633;SDS011;55625;47.072;22.192;2023-07-20T17:26:36;2.53;;;1.58;;
68633;SDS011;55625;47.072;22.192;2023-07-20T17:29:03;2.28;;;0.95;;
68633;SDS011;55625;47.072;22.192;2023-07-20T17:31:29;5.85;;;1.42;;
68633;SDS011;55625;47.072;22.192;2023-07-20T17:33:55;4.53;;;1.33;;
68633;SDS011;55625;47.072;22.192;2023-07-20T17:36:24;5.30;;;1.10;;
68633;SDS011;55625;47.072;22.192;2023-07-20T17:38:50;5.55;;;1.60;;
68633;SDS011;55625;47.072;22.192;2023-07-20T17:41:16;6.05;;;1.33;;
68633;SDS011;55625;47.072;22.192;2023-07-20T17:43:42;8.43;;;2.13;;
68633;SDS011;55625;47.072;22.192;2023-07-20T17:46:08;5.73;;;1.70;;
68633;SDS011;55625;47.072;22.192;2023-07-20T17:48:34;4.35;;;2.38;;
68633;SDS011;55625;47.072;22.192;2023-07-20T17:51:00;6.72;;;1.83;;
68633;SDS011;55625;47.072;22.192;2023-07-20T17:53:26;7.57;;;1.83;;
68633;SDS011;55625;47.072;22.192;2023-07-20T17:55:52;6.00;;;1.80;;
68633;SDS011;55625;47.072;22.192;2023-07-20T17:58:18;6.68;;;1.65;;
68633;SDS011;55625;47.072;22.192;2023-07-20T18:00:43;3.83;;;1.33;;
68633;SDS011;55625;47.072;22.192;2023-07-20T18:03:09;5.25;;;1.55;;
68633;SDS011;55625;47.072;22.192;2023-07-20T18:05:36;7.38;;;1.63;;
68633;SDS011;55625;47.072;22.192;2023-07-20T18:08:02;6.87;;;2.23;;
68633;SDS011;55625;47.072;22.192;2023-07-20T18:10:29;8.40;;;2.53;;
68633;SDS011;55625;47.072;22.192;2023-07-20T18:12:55;5.68;;;2.70;;
68633;SDS011;55625;47.072;22.192;2023-07-20T18:15:20;3.97;;;1.52;;
68633;SDS011;55625;47.072;22.192;2023-07-20T18:17:46;3.23;;;1.17;;
68633;SDS011;55625;47.072;22.192;2023-07-20T18:20:12;6.68;;;1.67;;
68633;SDS011;55625;47.072;22.192;2023-07-20T18:22:38;3.55;;;1.65;;
68633;SDS011;55625;47.072;22.192;2023-07-20T18:25:04;5.07;;;2.23;;
68633;SDS011;55625;47.072;22.192;2023-07-20T18:27:31;11.35;;;1.60;;
68633;SDS011;55625;47.072;22.192;2023-07-20T18:29:57;6.80;;;2.20;;
68633;SDS011;55625;47.072;22.192;2023-07-20T18:32:24;6.80;;;1.63;;
68633;SDS011;55625;47.072;22.192;2023-07-20T18:34:50;3.40;;;1.27;;
68633;SDS011;55625;47.072;22.192;2023-07-20T18:37:16;4.38;;;1.40;;
68633;SDS011;55625;47.072;22.192;2023-07-20T18:39:46;8.00;;;1.65;;
68633;SDS011;55625;47.072;22.192;2023-07-20T18:42:12;5.28;;;1.17;;
68633;SDS011;55625;47.072;22.192;2023-07-20T18:44:39;4.68;;;2.38;;
68633;SDS011;55625;47.072;22.192;2023-07-20T18:47:05;3.13;;;1.47;;
68633;SDS011;55625;47.072;22.192;2023-07-20T18:49:31;5.78;;;1.77;;
68633;SDS011;55625;47.072;22.192;2023-07-20T18:51:57;3.35;;;2.03;;
68633;SDS011;55625;47.072;22.192;2023-07-20T18:54:23;3.35;;;1.83;;
68633;SDS011;55625;47.072;22.192;2023-07-20T18:56:49;3.27;;;2.00;;
68633;SDS011;55625;47.072;22.192;2023-07-20T18:59:16;4.55;;;2.67;;
68633;SDS011;55625;47.072;22.192;2023-07-20T19:01:42;9.93;;;1.52;;
68633;SDS011;55625;47.072;22.192;2023-07-20T19:04:08;5.40;;;2.28;;
68633;SDS011;55625;47.072;22.192;2023-07-20T19:06:34;8.03;;;2.67;;
68633;SDS011;55625;47.072;22.192;2023-07-20T19:09:00;3.88;;;1.88;;
68633;SDS011;55625;47.072;22.192;2023-07-20T19:11:26;4.20;;;2.55;;
68633;SDS011;55625;47.072;22.192;2023-07-20T19:13:52;4.70;;;2.37;;
68633;SDS011;55625;47.072;22.192;2023-07-20T19:16:18;6.75;;;1.98;;
68633;SDS011;55625;47.072;22.192;2023-07-20T19:18:44;7.15;;;2.70;;
68633;SDS011;55625;47.072;22.192;2023-07-20T19:21:10;5.00;;;2.20;;
68633;SDS011;55625;47.072;22.192;2023-07-20T19:23:36;4.68;;;2.63;;
68633;SDS011;55625;47.072;22.192;2023-07-20T19:26:06;4.47;;;2.03;;
68633;SDS011;55625;47.072;22.192;2023-07-20T19:28:35;3.20;;;1.20;;
68633;SDS011;55625;47.072;22.192;2023-07-20T19:31:02;5.07;;;1.90;;
68633;SDS011;55625;47.072;22.192;2023-07-20T19:33:29;6.15;;;2.30;;
68633;SDS011;55625;47.072;22.192;2023-07-20T19:35:55;7.88;;;2.45;;
68633;SDS011;55625;47.072;22.192;2023-07-20T19:38:22;4.13;;;1.55;;
68633;SDS011;55625;47.072;22.192;2023-07-20T19:40:49;6.18;;;2.08;;
68633;SDS011;55625;47.072;22.192;2023-07-20T19:43:16;12.03;;;2.43;;
68633;SDS011;55625;47.072;22.192;2023-07-20T19:45:42;4.38;;;1.80;;
68633;SDS011;55625;47.072;22.192;2023-07-20T19:48:08;3.85;;;1.95;;
68633;SDS011;55625;47.072;22.192;2023-07-20T19:50:36;5.22;;;1.90;;
68633;SDS011;55625;47.072;22.192;2023-07-20T19:53:02;4.67;;;1.23;;
68633;SDS011;55625;47.072;22.192;2023-07-20T19:55:28;2.70;;;1.20;;
68633;SDS011;55625;47.072;22.192;2023-07-20T19:57:54;3.20;;;2.03;;
68633;SDS011;55625;47.072;22.192;2023-07-20T20:00:20;2.70;;;1.10;;
68633;SDS011;55625;47.072;22.192;2023-07-20T20:02:50;5.00;;;1.23;;
68633;SDS011;55625;47.072;22.192;2023-07-20T20:05:16;2.83;;;1.70;;
68633;SDS011;55625;47.072;22.192;2023-07-20T20:07:42;3.95;;;1.85;;